• Join FlightAware (Why Join?)
  • Login
  • US Flag 
Trick or treat! (Boo!!) 
01:13AM EDT


 

Airport Tracker/Info


-or-


 

Live Flight TrackerFlight Track Log ✈ N818CD ✈ 06-Jul-2013 ✈ KPWK - KBAK

Flight Track Log - Related Links

Times and Time Zones

All times are in EDT time to prevent confusion due to time zone crossing. See the N818CD flight status page for this flight to view local times or setup timezone preferences in your user account.

Time Position Orientation Groundspeed Altitude Reporting Facility
EDT Latitude Longitude Course Direction KTS MPH feet Rate Location/Type
10:48AM 42.1500 -87.8667 160° South 102 117 2,300  Level Chicago TRACON
10:48AM 42.1500 -87.8667 160° South 102 117 2,300 540 Level Chicago TRACON
10:49AM 42.1631 -87.8614 17° North 96 110 2,700 540 Climbing Chicago Center
10:49AM 42.1631 -87.8614 17° North 96 110 2,700 480 Level Chicago Center
10:50AM 42.1872 -87.8433 29° Northeast 99 114 3,200 480 Climbing Chicago Center
10:50AM 42.1872 -87.8433 29° Northeast 99 114 3,200 660 Level Chicago Center
10:51AM 42.1958 -87.8714 293° West 93 107 3,900 660 Climbing Chicago Center
10:51AM 42.1958 -87.8714 293° West 93 107 3,900 540 Level Chicago Center
10:52AM 42.1989 -87.9106 276° West 89 102 4,500 540 Climbing Chicago Center
10:52AM 42.1989 -87.9106 276° West 89 102 4,500 480 Level Chicago Center
10:53AM 41.9674 -87.7933 160° South  Level Estimated
10:53AM 41.9674 -87.7933 160° South  Level Estimated
10:53AM 42.1922 -87.9383 252° West 90 104 5,000  Level Chicago Center
10:53AM 42.1922 -87.9383 252° West 90 104 5,000 480 Level Chicago Center
10:54AM 42.1733 -87.9583 218° Southwest 90 104 5,500 480 Climbing Chicago Center
10:54AM 42.1733 -87.9583 218° Southwest 90 104 5,500 480 Level Chicago Center
10:55AM 42.1522 -87.9539 171° South 77 89 6,000 480 Climbing Chicago Center
10:55AM 42.1522 -87.9539 171° South 77 89 6,000 60 Level Chicago Center
10:56AM 42.1247 -87.9556 183° South 96 110 6,100 60 Climbing Chicago Center
10:56AM 42.1247 -87.9556 183° South 96 110 6,100  Level Chicago Center
10:56AM 42.1000 -87.9500 171° South 115 132 6,100  Level Chicago TRACON
10:56AM 42.1000 -87.9500 171° South 115 132 6,100  Level Chicago TRACON
10:57AM 42.0667 -87.9500 180° South 114 131 6,100  Level Chicago TRACON
10:57AM 42.0667 -87.9500 180° South 114 131 6,100  Level Chicago TRACON
10:58AM 42.0333 -87.9500 180° South 110 127 6,100  Level Chicago TRACON
10:58AM 42.0333 -87.9500 180° South 110 127 6,100  Level Chicago TRACON
10:59AM 42.0000 -87.9667 200° South 118 136 6,100  Level Chicago TRACON
10:59AM 42.0000 -87.9667 200° South 118 136 6,100  Level Chicago TRACON
11:00AM 41.9833 -87.9667 180° South 125 144 6,100  Level Chicago TRACON
11:00AM 41.9833 -87.9667 180° South 125 144 6,100  Level Chicago TRACON
11:01AM 41.9500 -87.9500 160° South 120 138 6,100  Level Chicago TRACON
11:01AM 41.9500 -87.9500 160° South 120 138 6,100  Level Chicago TRACON
11:02AM 41.9167 -87.9500 180° South 110 127 6,100  Level Chicago TRACON
11:02AM 41.9167 -87.9500 180° South 110 127 6,100 360 Level Chicago TRACON
11:03AM 41.9000 -87.9333 143° Southeast 100 115 6,500 360 Climbing Chicago TRACON
11:03AM 41.9000 -87.9333 143° Southeast 100 115 6,500 480 Level Chicago TRACON
11:04AM 41.8667 -87.9167 160° South 92 106 7,000 480 Climbing Chicago TRACON
11:04AM 41.8667 -87.9167 160° South 92 106 7,000 120 Level Chicago TRACON
11:05AM 41.8492 -87.9050 154° Southeast 99 114 7,100 120 Climbing Chicago Center
11:05AM 41.8492 -87.9050 154° Southeast 99 114 7,100  Level Chicago Center
11:06AM 41.8175 -87.8892 160° South 117 135 7,100  Level Chicago Center
11:06AM 41.8175 -87.8892 160° South 117 135 7,100  Level Chicago Center
11:07AM 41.7867 -87.8725 158° South 120 138 7,100  Level Chicago Center
11:07AM 41.7867 -87.8725 158° South 120 138 7,100 -120 Level Chicago Center
11:08AM 41.7539 -87.8644 170° South 121 139 7,000 -120 Descending Chicago Center
11:08AM 41.7539 -87.8644 170° South 121 139 7,000 60 Level Chicago Center
11:09AM 41.7156 -87.8564 171° South 118 136 7,100 60 Climbing Chicago Center
11:09AM 41.7156 -87.8564 171° South 118 136 7,100  Level Chicago Center
11:10AM 41.6828 -87.8489 170° South 119 137 7,100  Level Chicago Center
11:10AM 41.6828 -87.8489 170° South 119 137 7,100 -120 Level Chicago Center
11:11AM 41.6514 -87.8414 170° South 117 135 7,000 -120 Descending Chicago Center
11:11AM 41.6514 -87.8414 170° South 117 135 7,000  Level Chicago Center
11:12AM 41.6197 -87.8347 171° South 117 135 7,000  Level Chicago Center
11:12AM 41.6197 -87.8347 171° South 117 135 7,000  Level Chicago Center
11:13AM 41.5900 -87.8275 170° South 111 128 7,000  Level Chicago Center
11:13AM 41.5900 -87.8275 170° South 111 128 7,000  Level Chicago Center
11:14AM 41.5600 -87.8217 172° South 109 125 7,000  Level Chicago Center
11:14AM 41.5600 -87.8217 172° South 109 125 7,000  Level Chicago Center
11:15AM 41.5256 -87.8150 172° South 106 122 7,000  Level Chicago Center
11:15AM 41.5256 -87.8150 172° South 106 122 7,000  Level Chicago Center
11:16AM 41.4964 -87.8078 169° South 106 122 7,000  Level Chicago Center
11:16AM 41.4964 -87.8078 169° South 106 122 7,000  Level Chicago Center
11:18AM 41.4672 -87.8025 172° South 107 123 7,000  Level Chicago Center
11:18AM 41.4672 -87.8025 172° South 107 123 7,000  Level Chicago Center
11:19AM 41.4381 -87.7967 171° South 106 122 7,000  Level Chicago Center
11:19AM 41.4381 -87.7967 171° South 106 122 7,000  Level Chicago Center
11:20AM 41.4086 -87.7903 171° South 107 123 7,000  Level Chicago Center
11:20AM 41.4086 -87.7903 171° South 107 123 7,000  Level Chicago Center
11:26AM 41.2469 -87.6739 152° Southeast 106 122 7,000  Level Chicago Center
11:27AM 41.2200 -87.6567 154° Southeast 108 124 7,100  Climbing Chicago Center
11:28AM 41.1922 -87.6389 154° Southeast 110 127 7,000 -60 Descending Chicago Center
11:29AM 41.1597 -87.6183 155° Southeast 109 125 7,000  Level Chicago Center
11:30AM 41.1325 -87.6014 155° Southeast 110 127 7,000  Level Chicago Center
11:31AM 41.1061 -87.5844 154° Southeast 107 123 7,000  Level Chicago Center
11:32AM 41.0794 -87.5681 155° Southeast 106 122 7,000  Level Chicago Center
11:33AM 41.0511 -87.5522 157° South 109 125 7,000  Level Chicago Center
11:34AM 41.0239 -87.5367 157° South 108 124 7,000  Level Chicago Center
11:35AM 40.9906 -87.5192 158° South 108 124 7,000  Level Chicago Center
11:36AM 40.9628 -87.5028 156° South 108 124 7,100  Climbing Chicago Center
11:37AM 40.9344 -87.4864 156° South 110 127 7,100  Level Chicago Center
11:38AM 40.9056 -87.4706 157° South 111 128 7,100  Level Chicago Center
11:39AM 40.8769 -87.4544 157° South 112 129 7,100  Level Chicago Center
11:40AM 40.8392 -87.4375 161° South 113 130 7,100  Level Chicago Center
11:41AM 40.8144 -87.4275 163° South 110 127 7,100  Level Chicago Center
11:42AM 40.7836 -87.4169 165° South 116 133 7,100  Level Chicago Center
11:43AM 40.7531 -87.4036 162° South 118 136 7,200 300 Climbing Chicago Center
11:44AM 40.7239 -87.3961 169° South 104 120 7,800 360 Climbing Chicago Center
11:45AM 40.7033 -87.3858 159° South 84 97 8,100 180 Climbing Chicago Center
11:46AM 40.6747 -87.3786 169° South 100 115 8,200  Climbing Chicago Center
11:47AM 40.6350 -87.3706 171° South 115 132 8,200  Level Chicago Center
11:48AM 40.6106 -87.3658 172° South 116 133 8,200  Level Chicago Center
11:49AM 40.5708 -87.3608 175° South 117 135 8,200  Level Chicago Center
11:50AM 40.5417 -87.3636 184° South 120 138 8,200  Level Chicago Center
11:51AM 40.5081 -87.3692 187° South 119 137 8,200  Level Chicago Center
11:52AM 40.4783 -87.3781 193° South 117 135 8,200  Level Chicago Center
11:53AM 40.4447 -87.3836 187° South 120 138 8,200  Level Chicago Center
11:54AM 40.4231 -87.3575 137° Southeast 118 136 8,200  Level Chicago Center
11:55AM 40.3994 -87.3231 132° Southeast 120 138 8,200  Level Chicago Center
11:56AM 40.3778 -87.2914 132° Southeast 123 142 8,200  Level Chicago Center
11:57AM 40.3583 -87.2547 125° Southeast 117 135 8,200 -60 Level Chicago Center
11:58AM 40.3389 -87.2206 127° Southeast 115 132 8,100  Descending Chicago Center
11:59AM 40.3214 -87.1864 124° Southeast 116 133 8,200 60 Climbing Chicago Center
12:00PM 40.3144 -87.1758 131° Southeast 115 132 8,200 60 Level Chicago Center
12:00PM 40.3000 -87.1522 129° Southeast 114 131 8,300  Climbing Chicago Center
12:01PM 40.2944 -87.1436 130° Southeast 115 132 8,200 -180 Descending Chicago Center
12:02PM 40.2683 -87.1061 132° Southeast 113 130 8,100  Descending Chicago Center
12:03PM 40.2469 -87.0753 132° Southeast 114 131 8,300  Climbing Chicago Center
12:04PM 40.2253 -87.0383 128° Southeast 125 144 8,200 -60 Descending Chicago Center
12:05PM 40.2047 -87.0053 129° Southeast 121 139 8,200  Level Chicago Center
12:06PM 40.1836 -86.9731 131° Southeast 118 136 8,200  Level Chicago Center
12:07PM 40.1608 -86.9322 126° Southeast 115 132 8,200  Level Chicago Center
12:08PM 40.1419 -86.9000 127° Southeast 112 129 8,200  Level Chicago Center
12:09PM 40.1228 -86.8711 131° Southeast 107 123 8,200  Level Chicago Center
12:10PM 40.1022 -86.8406 131° Southeast 110 127 8,200  Level Chicago Center
12:11PM 40.0831 -86.8108 130° Southeast 106 122 8,300 -180 Climbing Chicago Center
12:12PM 40.0636 -86.7814 131° Southeast 107 123 7,900 -480 Descending Chicago Center
12:13PM 40.0389 -86.7431 130° Southeast 111 128 7,400 -480 Descending Indianapolis Center
12:14PM 40.0206 -86.7125 128° Southeast 110 127 7,000 -480 Descending Indianapolis Center
12:15PM 40.0028 -86.6814 127° Southeast 107 123 6,500 -480 Descending Indianapolis Center
12:16PM 39.9842 -86.6481 126° Southeast 111 128 6,100 -300 Descending Indianapolis Center
12:17PM 39.9658 -86.6153 126° Southeast 113 130 6,000 -120 Descending Indianapolis Center
12:18PM 39.9450 -86.5811 128° Southeast 118 136 5,900 -240 Descending Indianapolis Center
12:19PM 39.9261 -86.5483 127° Southeast 115 132 5,600 -300 Descending Indianapolis Center
12:20PM 39.9067 -86.5167 129° Southeast 113 130 5,300 -300 Descending Indianapolis Center
12:21PM 39.8831 -86.4783 129° Southeast 113 130 5,000 -360 Descending Indianapolis Center
12:22PM 39.8644 -86.4458 127° Southeast 113 130 4,600 -360 Descending Indianapolis Center
12:23PM 39.8444 -86.4122 128° Southeast 114 131 4,300 -300 Descending Indianapolis Center
12:24PM 39.8239 -86.3767 127° Southeast 119 137 4,100 -120 Descending Indianapolis Center
12:25PM 39.7994 -86.3494 139° Southeast 118 136 4,100  Level Indianapolis Center
12:26PM 39.7756 -86.3233 140° Southeast 115 132 4,200  Climbing Indianapolis Center
12:27PM 39.7517 -86.2956 138° Southeast 115 132 4,200  Level Indianapolis Center
12:28PM 39.7258 -86.2650 138° Southeast 115 132 4,300 60 Climbing Indianapolis Center
12:30PM 39.7014 -86.2367 138° Southeast 115 132 4,400  Climbing Indianapolis Center
12:31PM 39.6764 -86.2078 138° Southeast 118 136 4,300 -180 Descending Indianapolis Center
12:32PM 39.6531 -86.1742 132° Southeast 122 140 4,100 -120 Descending Indianapolis Center
12:33PM 39.6294 -86.1475 139° Southeast 119 137 4,100  Level Indianapolis Center
12:34PM 39.5986 -86.1128 139° Southeast 119 137 4,100  Level Indianapolis Center
12:35PM 39.5742 -86.0817 136° Southeast 122 140 4,100  Level Indianapolis Center
12:36PM 39.5531 -86.0472 128° Southeast 123 142 4,100  Level Indianapolis Center
12:37PM 39.5325 -86.0128 128° Southeast 122 140 4,100 -300 Level Indianapolis Center
12:38PM 39.5106 -85.9778 129° Southeast 123 142 3,600 -540 Descending Indianapolis Center
12:39PM 39.4883 -85.9425 129° Southeast 125 144 3,000 -300 Descending Indianapolis Center
12:40PM 39.4692 -85.9078 126° Southeast 123 142 3,000  Level Indianapolis Center
12:41PM 39.4547 -85.8711 117° Southeast 118 136 3,000  Level Indianapolis Center
12:42PM 39.4369 -85.8269 118° Southeast 116 133 3,000  Level Indianapolis Center
12:43PM 39.4211 -85.7911 120° Southeast 116 133 3,000  Level Indianapolis Center
12:44PM 39.4039 -85.7569 123° Southeast 115 132 3,000  Level Indianapolis Center
12:45PM 39.3728 -85.7750 204° Southwest 117 135 3,000 -300 Level Indianapolis Center
12:46PM 39.3475 -85.7986 216° Southwest 112 129 2,500 -420 Descending Indianapolis Center
12:47PM 39.3236 -85.8183 213° Southwest 109 125 2,200 -300 Descending Indianapolis Center
12:48PM 39.3072 -85.8372 222° Southwest 96 110 2,000 -300 Descending Indianapolis Center
12:49PM 39.2897 -85.8650 231° Southwest 92 106 1,600 -420 Descending Indianapolis Center